sensor_id;sensor_type;location;lat;lon;timestamp;temperature;humidity
65598;SHT31;52267;51.984;20.956;2022-12-18T00:01:27;-3.62;85.71
65598;SHT31;52267;51.984;20.956;2022-12-18T00:04:00;-3.61;85.74
65598;SHT31;52267;51.984;20.956;2022-12-18T00:06:32;-3.57;85.72
65598;SHT31;52267;51.984;20.956;2022-12-18T00:09:01;-3.54;85.70
65598;SHT31;52267;51.984;20.956;2022-12-18T00:11:30;-3.54;85.66
65598;SHT31;52267;51.984;20.956;2022-12-18T00:13:58;-3.54;85.69
65598;SHT31;52267;51.984;20.956;2022-12-18T00:16:27;-3.54;85.68
65598;SHT31;52267;51.984;20.956;2022-12-18T00:18:57;-3.50;85.70
65598;SHT31;52267;51.984;20.956;2022-12-18T00:21:24;-3.45;85.61
65598;SHT31;52267;51.984;20.956;2022-12-18T00:23:53;-3.40;85.57
65598;SHT31;52267;51.984;20.956;2022-12-18T00:26:31;-3.38;85.53
65598;SHT31;52267;51.984;20.956;2022-12-18T00:29:01;-3.40;85.49
65598;SHT31;52267;51.984;20.956;2022-12-18T00:31:36;-3.41;85.57
65598;SHT31;52267;51.984;20.956;2022-12-18T00:34:04;-3.37;85.60
65598;SHT31;52267;51.984;20.956;2022-12-18T00:36:32;-3.33;85.51
65598;SHT31;52267;51.984;20.956;2022-12-18T00:39:02;-3.36;85.50
65598;SHT31;52267;51.984;20.956;2022-12-18T00:41:31;-3.39;85.59
65598;SHT31;52267;51.984;20.956;2022-12-18T00:44:18;-3.34;85.60
65598;SHT31;52267;51.984;20.956;2022-12-18T00:46:46;-3.34;85.56
65598;SHT31;52267;51.984;20.956;2022-12-18T00:49:15;-3.33;85.58
65598;SHT31;52267;51.984;20.956;2022-12-18T00:51:47;-3.31;85.56
65598;SHT31;52267;51.984;20.956;2022-12-18T00:54:15;-3.25;85.51
65598;SHT31;52267;51.984;20.956;2022-12-18T00:56:43;-3.22;85.46
65598;SHT31;52267;51.984;20.956;2022-12-18T00:59:10;-3.22;85.49
65598;SHT31;52267;51.984;20.956;2022-12-18T01:01:38;-3.19;85.46
65598;SHT31;52267;51.984;20.956;2022-12-18T01:04:05;-3.17;85.42
65598;SHT31;52267;51.984;20.956;2022-12-18T01:06:32;-3.17;85.40
65598;SHT31;52267;51.984;20.956;2022-12-18T01:08:59;-3.18;85.50
65598;SHT31;52267;51.984;20.956;2022-12-18T01:11:26;-3.21;85.48
65598;SHT31;52267;51.984;20.956;2022-12-18T01:13:53;-3.21;85.50
65598;SHT31;52267;51.984;20.956;2022-12-18T01:16:22;-3.22;85.50
65598;SHT31;52267;51.984;20.956;2022-12-18T01:18:52;-3.20;85.52
65598;SHT31;52267;51.984;20.956;2022-12-18T01:21:22;-3.19;85.50
65598;SHT31;52267;51.984;20.956;2022-12-18T01:23:53;-3.17;85.46
65598;SHT31;52267;51.984;20.956;2022-12-18T01:26:23;-3.13;85.42
65598;SHT31;52267;51.984;20.956;2022-12-18T01:28:53;-3.10;85.32
65598;SHT31;52267;51.984;20.956;2022-12-18T01:31:22;-3.15;85.31
65598;SHT31;52267;51.984;20.956;2022-12-18T01:33:52;-3.10;85.35
65598;SHT31;52267;51.984;20.956;2022-12-18T01:38:52;-3.03;85.25
65598;SHT31;52267;51.984;20.956;2022-12-18T01:41:21;-3.03;85.27
65598;SHT31;52267;51.984;20.956;2022-12-18T01:43:55;-3.04;85.28
65598;SHT31;52267;51.984;20.956;2022-12-18T01:46:24;-3.04;85.28
65598;SHT31;52267;51.984;20.956;2022-12-18T01:48:54;-3.04;85.30
65598;SHT31;52267;51.984;20.956;2022-12-18T01:51:25;-3.01;85.30
65598;SHT31;52267;51.984;20.956;2022-12-18T01:53:54;-2.97;85.23
65598;SHT31;52267;51.984;20.956;2022-12-18T01:56:22;-2.99;85.20
65598;SHT31;52267;51.984;20.956;2022-12-18T01:58:59;-2.99;85.24
65598;SHT31;52267;51.984;20.956;2022-12-18T02:01:31;-3.01;85.29
65598;SHT31;52267;51.984;20.956;2022-12-18T02:07:17;-2.98;85.30
65598;SHT31;52267;51.984;20.956;2022-12-18T02:23:00;-2.82;85.24
65598;SHT31;52267;51.984;20.956;2022-12-18T02:28:36;-2.75;85.21
65598;SHT31;52267;51.984;20.956;2022-12-18T02:31:14;-2.72;85.19
65598;SHT31;52267;51.984;20.956;2022-12-18T02:33:55;-2.78;85.24
65598;SHT31;52267;51.984;20.956;2022-12-18T02:36:23;-2.77;85.30
65598;SHT31;52267;51.984;20.956;2022-12-18T02:38:52;-2.78;85.30
65598;SHT31;52267;51.984;20.956;2022-12-18T02:41:21;-2.75;85.30
65598;SHT31;52267;51.984;20.956;2022-12-18T02:43:50;-2.76;85.30
65598;SHT31;52267;51.984;20.956;2022-12-18T02:46:26;-2.73;85.30
65598;SHT31;52267;51.984;20.956;2022-12-18T02:49:44;-2.71;85.30
65598;SHT31;52267;51.984;20.956;2022-12-18T02:58:05;-2.76;85.20
65598;SHT31;52267;51.984;20.956;2022-12-18T03:00:48;-2.72;85.20
65598;SHT31;52267;51.984;20.956;2022-12-18T03:03:25;-2.74;85.04
65598;SHT31;52267;51.984;20.956;2022-12-18T03:06:04;-2.79;85.02
65598;SHT31;52267;51.984;20.956;2022-12-18T03:08:40;-2.80;85.12
65598;SHT31;52267;51.984;20.956;2022-12-18T03:11:11;-2.83;85.15
65598;SHT31;52267;51.984;20.956;2022-12-18T03:13:45;-2.83;85.15
65598;SHT31;52267;51.984;20.956;2022-12-18T03:16:20;-2.83;85.10
65598;SHT31;52267;51.984;20.956;2022-12-18T03:18:54;-2.82;85.09
65598;SHT31;52267;51.984;20.956;2022-12-18T03:21:28;-2.79;85.09
65598;SHT31;52267;51.984;20.956;2022-12-18T03:24:06;-2.79;84.99
65598;SHT31;52267;51.984;20.956;2022-12-18T03:26:36;-2.84;84.87
65598;SHT31;52267;51.984;20.956;2022-12-18T03:29:09;-2.86;84.94
65598;SHT31;52267;51.984;20.956;2022-12-18T03:31:45;-2.89;84.97
65598;SHT31;52267;51.984;20.956;2022-12-18T03:34:21;-2.90;84.99
65598;SHT31;52267;51.984;20.956;2022-12-18T03:36:53;-2.92;84.96
65598;SHT31;52267;51.984;20.956;2022-12-18T03:39:20;-2.93;84.92
65598;SHT31;52267;51.984;20.956;2022-12-18T03:45:24;-2.92;84.90
65598;SHT31;52267;51.984;20.956;2022-12-18T03:48:07;-2.91;84.91
65598;SHT31;52267;51.984;20.956;2022-12-18T03:51:06;-2.93;84.83
65598;SHT31;52267;51.984;20.956;2022-12-18T03:56:20;-2.92;84.90
65598;SHT31;52267;51.984;20.956;2022-12-18T03:58:52;-2.93;84.90
65598;SHT31;52267;51.984;20.956;2022-12-18T04:01:20;-2.93;84.86
65598;SHT31;52267;51.984;20.956;2022-12-18T04:03:56;-2.90;84.78
65598;SHT31;52267;51.984;20.956;2022-12-18T04:06:26;-2.91;84.80
65598;SHT31;52267;51.984;20.956;2022-12-18T04:08:56;-2.91;84.80
65598;SHT31;52267;51.984;20.956;2022-12-18T04:11:24;-2.91;84.73
65598;SHT31;52267;51.984;20.956;2022-12-18T04:13:55;-2.93;84.73
65598;SHT31;52267;51.984;20.956;2022-12-18T04:16:24;-2.91;84.79
65598;SHT31;52267;51.984;20.956;2022-12-18T04:18:51;-2.92;84.73
65598;SHT31;52267;51.984;20.956;2022-12-18T04:21:20;-2.94;84.69
65598;SHT31;52267;51.984;20.956;2022-12-18T04:23:47;-2.95;84.70
65598;SHT31;52267;51.984;20.956;2022-12-18T04:26:14;-2.99;84.61
65598;SHT31;52267;51.984;20.956;2022-12-18T04:28:44;-3.01;84.61
65598;SHT31;52267;51.984;20.956;2022-12-18T04:31:11;-3.02;84.61
65598;SHT31;52267;51.984;20.956;2022-12-18T04:33:39;-3.03;84.66
65598;SHT31;52267;51.984;20.956;2022-12-18T04:36:06;-3.01;84.65
65598;SHT31;52267;51.984;20.956;2022-12-18T04:38:33;-3.01;84.60
65598;SHT31;52267;51.984;20.956;2022-12-18T04:41:00;-3.02;84.56
65598;SHT31;52267;51.984;20.956;2022-12-18T04:43:27;-3.05;84.55
65598;SHT31;52267;51.984;20.956;2022-12-18T04:46:01;-3.08;84.56
65598;SHT31;52267;51.984;20.956;2022-12-18T04:48:34;-3.13;84.49
65598;SHT31;52267;51.984;20.956;2022-12-18T04:51:02;-3.15;84.58
65598;SHT31;52267;51.984;20.956;2022-12-18T04:53:31;-3.17;84.60
65598;SHT31;52267;51.984;20.956;2022-12-18T04:56:05;-3.19;84.62
65598;SHT31;52267;51.984;20.956;2022-12-18T04:58:36;-3.21;84.60
65598;SHT31;52267;51.984;20.956;2022-12-18T05:01:04;-3.23;84.60
65598;SHT31;52267;51.984;20.956;2022-12-18T05:03:34;-3.27;84.59
65598;SHT31;52267;51.984;20.956;2022-12-18T05:06:02;-3.28;84.62
65598;SHT31;52267;51.984;20.956;2022-12-18T05:08:30;-3.27;84.60
65598;SHT31;52267;51.984;20.956;2022-12-18T05:11:08;-3.25;84.60
65598;SHT31;52267;51.984;20.956;2022-12-18T05:13:42;-3.23;84.60
65598;SHT31;52267;51.984;20.956;2022-12-18T05:16:11;-3.21;84.57
65598;SHT31;52267;51.984;20.956;2022-12-18T05:18:40;-3.22;84.51
65598;SHT31;52267;51.984;20.956;2022-12-18T05:21:08;-3.21;84.52
65598;SHT31;52267;51.984;20.956;2022-12-18T05:23:35;-3.22;84.53
65598;SHT31;52267;51.984;20.956;2022-12-18T05:26:04;-3.26;84.55
65598;SHT31;52267;51.984;20.956;2022-12-18T05:28:33;-3.29;84.53
65598;SHT31;52267;51.984;20.956;2022-12-18T05:31:02;-3.30;84.55
65598;SHT31;52267;51.984;20.956;2022-12-18T05:33:31;-3.29;84.53
65598;SHT31;52267;51.984;20.956;2022-12-18T05:36:01;-3.32;84.53
65598;SHT31;52267;51.984;20.956;2022-12-18T05:38:30;-3.35;84.55
65598;SHT31;52267;51.984;20.956;2022-12-18T05:40:59;-3.41;84.50
65598;SHT31;52267;51.984;20.956;2022-12-18T05:43:27;-3.43;84.59
65598;SHT31;52267;51.984;20.956;2022-12-18T05:45:55;-3.48;84.47
65598;SHT31;52267;51.984;20.956;2022-12-18T05:48:23;-3.49;84.50
65598;SHT31;52267;51.984;20.956;2022-12-18T05:50:50;-3.52;84.48
65598;SHT31;52267;51.984;20.956;2022-12-18T05:53:19;-3.58;84.45
65598;SHT31;52267;51.984;20.956;2022-12-18T05:55:47;-3.60;84.44
65598;SHT31;52267;51.984;20.956;2022-12-18T05:58:14;-3.57;84.47
65598;SHT31;52267;51.984;20.956;2022-12-18T06:00:42;-3.57;84.39
65598;SHT31;52267;51.984;20.956;2022-12-18T06:03:12;-3.58;84.41
65598;SHT31;52267;51.984;20.956;2022-12-18T06:05:43;-3.59;84.41
65598;SHT31;52267;51.984;20.956;2022-12-18T06:08:12;-3.60;84.41
65598;SHT31;52267;51.984;20.956;2022-12-18T06:10:40;-3.58;84.42
65598;SHT31;52267;51.984;20.956;2022-12-18T06:13:08;-3.54;84.40
65598;SHT31;52267;51.984;20.956;2022-12-18T06:15:38;-3.54;84.40
65598;SHT31;52267;51.984;20.956;2022-12-18T06:18:05;-3.55;84.40
65598;SHT31;52267;51.984;20.956;2022-12-18T06:20:32;-3.59;84.44
65598;SHT31;52267;51.984;20.956;2022-12-18T06:23:00;-3.59;84.50
65598;SHT31;52267;51.984;20.956;2022-12-18T06:25:27;-3.58;84.51
65598;SHT31;52267;51.984;20.956;2022-12-18T06:27:54;-3.58;84.53
65598;SHT31;52267;51.984;20.956;2022-12-18T06:30:21;-3.58;84.56
65598;SHT31;52267;51.984;20.956;2022-12-18T06:32:49;-3.55;84.51
65598;SHT31;52267;51.984;20.956;2022-12-18T06:35:16;-3.52;84.52
65598;SHT31;52267;51.984;20.956;2022-12-18T06:37:43;-3.54;84.51
65598;SHT31;52267;51.984;20.956;2022-12-18T06:40:10;-3.52;84.51
65598;SHT31;52267;51.984;20.956;2022-12-18T06:42:37;-3.49;84.50
65598;SHT31;52267;51.984;20.956;2022-12-18T06:45:04;-3.47;84.48
65598;SHT31;52267;51.984;20.956;2022-12-18T06:47:32;-3.46;84.42
65598;SHT31;52267;51.984;20.956;2022-12-18T06:49:59;-3.42;84.41
65598;SHT31;52267;51.984;20.956;2022-12-18T06:52:26;-3.46;84.33
65598;SHT31;52267;51.984;20.956;2022-12-18T06:54:53;-3.49;84.43
65598;SHT31;52267;51.984;20.956;2022-12-18T06:57:20;-3.49;84.44
65598;SHT31;52267;51.984;20.956;2022-12-18T06:59:47;-3.47;84.40
65598;SHT31;52267;51.984;20.956;2022-12-18T07:02:15;-3.48;84.40
65598;SHT31;52267;51.984;20.956;2022-12-18T07:04:42;-3.52;84.39
65598;SHT31;52267;51.984;20.956;2022-12-18T07:07:09;-3.51;84.41
65598;SHT31;52267;51.984;20.956;2022-12-18T07:09:36;-3.53;84.41
65598;SHT31;52267;51.984;20.956;2022-12-18T07:12:03;-3.55;84.49
65598;SHT31;52267;51.984;20.956;2022-12-18T07:14:31;-3.51;84.49
65598;SHT31;52267;51.984;20.956;2022-12-18T07:16:58;-3.49;84.42
65598;SHT31;52267;51.984;20.956;2022-12-18T07:19:25;-3.44;84.40
65598;SHT31;52267;51.984;20.956;2022-12-18T07:21:52;-3.46;84.42
65598;SHT31;52267;51.984;20.956;2022-12-18T07:24:19;-3.47;84.48
65598;SHT31;52267;51.984;20.956;2022-12-18T07:26:46;-3.43;84.42
65598;SHT31;52267;51.984;20.956;2022-12-18T07:29:14;-3.41;84.41
65598;SHT31;52267;51.984;20.956;2022-12-18T07:31:41;-3.39;84.46
65598;SHT31;52267;51.984;20.956;2022-12-18T07:34:12;-3.37;84.48
65598;SHT31;52267;51.984;20.956;2022-12-18T07:36:41;-3.34;84.48
65598;SHT31;52267;51.984;20.956;2022-12-18T07:39:09;-3.32;84.43
65598;SHT31;52267;51.984;20.956;2022-12-18T07:41:38;-3.29;84.44
65598;SHT31;52267;51.984;20.956;2022-12-18T07:44:09;-3.22;84.40
65598;SHT31;52267;51.984;20.956;2022-12-18T07:46:37;-3.17;84.37
65598;SHT31;52267;51.984;20.956;2022-12-18T07:49:04;-3.14;84.31
65598;SHT31;52267;51.984;20.956;2022-12-18T07:51:32;-3.13;84.30
65598;SHT31;52267;51.984;20.956;2022-12-18T07:53:59;-3.08;84.30
65598;SHT31;52267;51.984;20.956;2022-12-18T07:56:26;-3.01;84.26
65598;SHT31;52267;51.984;20.956;2022-12-18T07:58:53;-2.95;84.21
65598;SHT31;52267;51.984;20.956;2022-12-18T08:01:20;-2.93;84.17
65598;SHT31;52267;51.984;20.956;2022-12-18T08:03:48;-2.92;84.13
65598;SHT31;52267;51.984;20.956;2022-12-18T08:06:15;-2.88;84.20
65598;SHT31;52267;51.984;20.956;2022-12-18T08:08:42;-2.80;84.12
65598;SHT31;52267;51.984;20.956;2022-12-18T08:11:09;-2.77;83.99
65598;SHT31;52267;51.984;20.956;2022-12-18T08:13:36;-2.75;83.95
65598;SHT31;52267;51.984;20.956;2022-12-18T08:16:05;-2.72;83.92
65598;SHT31;52267;51.984;20.956;2022-12-18T08:18:36;-2.73;83.90
65598;SHT31;52267;51.984;20.956;2022-12-18T08:21:07;-2.72;83.91
65598;SHT31;52267;51.984;20.956;2022-12-18T08:23:41;-2.67;83.90
65598;SHT31;52267;51.984;20.956;2022-12-18T08:26:10;-2.61;83.82
65598;SHT31;52267;51.984;20.956;2022-12-18T08:28:38;-2.63;83.72
65598;SHT31;52267;51.984;20.956;2022-12-18T08:31:06;-2.63;83.70
65598;SHT31;52267;51.984;20.956;2022-12-18T08:33:34;-2.63;83.68
65598;SHT31;52267;51.984;20.956;2022-12-18T08:36:03;-2.61;83.61
65598;SHT31;52267;51.984;20.956;2022-12-18T08:38:31;-2.63;83.48
65598;SHT31;52267;51.984;20.956;2022-12-18T08:40:59;-2.63;83.50
65598;SHT31;52267;51.984;20.956;2022-12-18T08:43:27;-2.59;83.43
65598;SHT31;52267;51.984;20.956;2022-12-18T08:46:13;-2.52;83.36
65598;SHT31;52267;51.984;20.956;2022-12-18T08:48:42;-2.46;83.30
65598;SHT31;52267;51.984;20.956;2022-12-18T08:51:09;-2.41;83.11
65598;SHT31;52267;51.984;20.956;2022-12-18T08:53:37;-2.39;83.00
65598;SHT31;52267;51.984;20.956;2022-12-18T08:56:04;-2.36;82.99
65598;SHT31;52267;51.984;20.956;2022-12-18T08:58:32;-2.39;82.93
65598;SHT31;52267;51.984;20.956;2022-12-18T09:01:09;-2.34;82.99
65598;SHT31;52267;51.984;20.956;2022-12-18T09:03:38;-2.37;82.85
65598;SHT31;52267;51.984;20.956;2022-12-18T09:06:06;-2.42;82.80
65598;SHT31;52267;51.984;20.956;2022-12-18T09:08:34;-2.41;82.78
65598;SHT31;52267;51.984;20.956;2022-12-18T09:11:02;-2.36;82.77
65598;SHT31;52267;51.984;20.956;2022-12-18T09:13:30;-2.33;82.64
65598;SHT31;52267;51.984;20.956;2022-12-18T09:15:58;-2.36;82.58
65598;SHT31;52267;51.984;20.956;2022-12-18T09:18:25;-2.36;82.74
65598;SHT31;52267;51.984;20.956;2022-12-18T09:20:52;-2.31;82.64
65598;SHT31;52267;51.984;20.956;2022-12-18T09:23:20;-2.21;82.46
65598;SHT31;52267;51.984;20.956;2022-12-18T09:25:48;-2.23;82.31
65598;SHT31;52267;51.984;20.956;2022-12-18T09:28:16;-2.21;82.34
65598;SHT31;52267;51.984;20.956;2022-12-18T09:30:46;-2.19;82.42
65598;SHT31;52267;51.984;20.956;2022-12-18T09:33:15;-2.18;82.24
65598;SHT31;52267;51.984;20.956;2022-12-18T09:35:44;-2.08;82.22
65598;SHT31;52267;51.984;20.956;2022-12-18T09:38:16;-2.06;81.93
65598;SHT31;52267;51.984;20.956;2022-12-18T09:40:49;-2.04;82.02
65598;SHT31;52267;51.984;20.956;2022-12-18T09:43:22;-2.12;82.18
65598;SHT31;52267;51.984;20.956;2022-12-18T09:46:00;-2.12;82.19
65598;SHT31;52267;51.984;20.956;2022-12-18T09:48:35;-2.19;82.08
65598;SHT31;52267;51.984;20.956;2022-12-18T09:51:14;-2.20;82.06
65598;SHT31;52267;51.984;20.956;2022-12-18T09:54:10;-2.13;81.99
65598;SHT31;52267;51.984;20.956;2022-12-18T09:56:40;-2.19;81.85
65598;SHT31;52267;51.984;20.956;2022-12-18T09:59:53;-2.22;81.80
65598;SHT31;52267;51.984;20.956;2022-12-18T10:02:19;-2.18;81.59
65598;SHT31;52267;51.984;20.956;2022-12-18T10:05:00;-2.16;81.69
65598;SHT31;52267;51.984;20.956;2022-12-18T10:07:41;-2.09;81.68
65598;SHT31;52267;51.984;20.956;2022-12-18T10:10:27;-2.02;81.68
65598;SHT31;52267;51.984;20.956;2022-12-18T10:13:33;-1.98;81.50
65598;SHT31;52267;51.984;20.956;2022-12-18T10:16:17;-1.99;81.51
65598;SHT31;52267;51.984;20.956;2022-12-18T10:24:42;-1.91;81.43
65598;SHT31;52267;51.984;20.956;2022-12-18T10:27:52;-1.82;81.29
65598;SHT31;52267;51.984;20.956;2022-12-18T10:30:24;-1.77;81.23
65598;SHT31;52267;51.984;20.956;2022-12-18T10:32:52;-1.81;81.20
65598;SHT31;52267;51.984;20.956;2022-12-18T10:35:22;-1.88;81.18
65598;SHT31;52267;51.984;20.956;2022-12-18T10:40:49;-1.97;81.26
65598;SHT31;52267;51.984;20.956;2022-12-18T10:48:39;-2.05;80.97
65598;SHT31;52267;51.984;20.956;2022-12-18T10:51:07;-1.96;80.99
65598;SHT31;52267;51.984;20.956;2022-12-18T10:53:35;-1.94;80.93
65598;SHT31;52267;51.984;20.956;2022-12-18T10:56:04;-1.89;80.94
65598;SHT31;52267;51.984;20.956;2022-12-18T10:58:34;-1.79;80.89
65598;SHT31;52267;51.984;20.956;2022-12-18T11:01:11;-1.67;80.77
65598;SHT31;52267;51.984;20.956;2022-12-18T11:03:41;-1.51;80.67
65598;SHT31;52267;51.984;20.956;2022-12-18T11:06:11;-1.50;80.55
65598;SHT31;52267;51.984;20.956;2022-12-18T11:08:56;-1.46;80.65
65598;SHT31;52267;51.984;20.956;2022-12-18T11:11:26;-1.45;80.35
65598;SHT31;52267;51.984;20.956;2022-12-18T11:14:19;-1.45;80.36
65598;SHT31;52267;51.984;20.956;2022-12-18T11:16:53;-1.41;80.38
65598;SHT31;52267;51.984;20.956;2022-12-18T11:19:35;-1.39;80.36
65598;SHT31;52267;51.984;20.956;2022-12-18T11:22:17;-1.34;80.14
65598;SHT31;52267;51.984;20.956;2022-12-18T11:25:33;-1.29;80.11
65598;SHT31;52267;51.984;20.956;2022-12-18T11:27:53;-1.24;79.75
65598;SHT31;52267;51.984;20.956;2022-12-18T11:30:34;-1.21;80.03
65598;SHT31;52267;51.984;20.956;2022-12-18T11:33:06;-1.16;80.01
65598;SHT31;52267;51.984;20.956;2022-12-18T11:38:34;-1.04;79.87
65598;SHT31;52267;51.984;20.956;2022-12-18T11:44:16;-1.02;79.89
65598;SHT31;52267;51.984;20.956;2022-12-18T11:46:55;-1.03;79.66
65598;SHT31;52267;51.984;20.956;2022-12-18T11:49:32;-0.95;79.60
65598;SHT31;52267;51.984;20.956;2022-12-18T11:54:51;-0.84;79.22
65598;SHT31;52267;51.984;20.956;2022-12-18T12:14:24;-0.98;78.96
65598;SHT31;52267;51.984;20.956;2022-12-18T12:20:30;-1.09;78.80
65598;SHT31;52267;51.984;20.956;2022-12-18T12:23:18;-1.05;78.74
65598;SHT31;52267;51.984;20.956;2022-12-18T12:28:51;-0.93;78.83
65598;SHT31;52267;51.984;20.956;2022-12-18T12:31:55;-0.91;78.72
65598;SHT31;52267;51.984;20.956;2022-12-18T12:34:51;-0.94;79.14
65598;SHT31;52267;51.984;20.956;2022-12-18T12:37:38;-1.05;79.33
65598;SHT31;52267;51.984;20.956;2022-12-18T12:40:25;-1.16;79.13
65598;SHT31;52267;51.984;20.956;2022-12-18T12:42:58;-1.23;79.10
65598;SHT31;52267;51.984;20.956;2022-12-18T12:45:59;-1.24;79.08
65598;SHT31;52267;51.984;20.956;2022-12-18T12:48:53;-1.31;78.91
65598;SHT31;52267;51.984;20.956;2022-12-18T12:51:24;-1.29;78.89
65598;SHT31;52267;51.984;20.956;2022-12-18T12:53:55;-1.33;79.09
65598;SHT31;52267;51.984;20.956;2022-12-18T12:56:24;-1.32;79.07
65598;SHT31;52267;51.984;20.956;2022-12-18T13:02:21;-1.37;78.77
65598;SHT31;52267;51.984;20.956;2022-12-18T13:04:59;-1.49;78.78
65598;SHT31;52267;51.984;20.956;2022-12-18T13:07:51;-1.58;79.21
65598;SHT31;52267;51.984;20.956;2022-12-18T13:15:26;-1.99;79.38
65598;SHT31;52267;51.984;20.956;2022-12-18T13:18:05;-1.97;79.40
65598;SHT31;52267;51.984;20.956;2022-12-18T13:20:39;-1.92;79.45
65598;SHT31;52267;51.984;20.956;2022-12-18T13:25:51;-1.86;79.35
65598;SHT31;52267;51.984;20.956;2022-12-18T13:28:23;-1.86;79.30
65598;SHT31;52267;51.984;20.956;2022-12-18T13:31:00;-1.88;79.37
65598;SHT31;52267;51.984;20.956;2022-12-18T13:44:40;-2.12;79.70
65598;SHT31;52267;51.984;20.956;2022-12-18T13:47:31;-2.12;79.77
65598;SHT31;52267;51.984;20.956;2022-12-18T13:50:00;-2.09;79.80
65598;SHT31;52267;51.984;20.956;2022-12-18T13:52:33;-2.16;79.78
65598;SHT31;52267;51.984;20.956;2022-12-18T13:55:05;-2.23;79.82
65598;SHT31;52267;51.984;20.956;2022-12-18T13:57:42;-2.32;79.90
65598;SHT31;52267;51.984;20.956;2022-12-18T14:02:49;-2.51;80.03
65598;SHT31;52267;51.984;20.956;2022-12-18T14:05:30;-2.67;80.16
65598;SHT31;52267;51.984;20.956;2022-12-18T14:08:08;-2.72;80.38
65598;SHT31;52267;51.984;20.956;2022-12-18T14:10:40;-2.68;80.41
65598;SHT31;52267;51.984;20.956;2022-12-18T14:13:10;-2.61;80.40
65598;SHT31;52267;51.984;20.956;2022-12-18T14:16:05;-2.56;80.36
65598;SHT31;52267;51.984;20.956;2022-12-18T14:21:15;-2.62;80.33
65598;SHT31;52267;51.984;20.956;2022-12-18T14:23:47;-2.70;80.42
65598;SHT31;52267;51.984;20.956;2022-12-18T14:26:28;-2.72;80.47
65598;SHT31;52267;51.984;20.956;2022-12-18T14:28:58;-2.75;80.44
65598;SHT31;52267;51.984;20.956;2022-12-18T14:31:29;-2.74;80.50
65598;SHT31;52267;51.984;20.956;2022-12-18T14:33:58;-2.76;80.51
65598;SHT31;52267;51.984;20.956;2022-12-18T14:36:26;-2.77;80.48
65598;SHT31;52267;51.984;20.956;2022-12-18T14:38:57;-2.76;80.50
65598;SHT31;52267;51.984;20.956;2022-12-18T14:41:25;-2.77;80.55
65598;SHT31;52267;51.984;20.956;2022-12-18T14:43:54;-2.84;80.65
65598;SHT31;52267;51.984;20.956;2022-12-18T14:46:25;-2.94;80.83
65598;SHT31;52267;51.984;20.956;2022-12-18T14:49:17;-2.96;80.92
65598;SHT31;52267;51.984;20.956;2022-12-18T14:52:02;-2.95;81.00
65598;SHT31;52267;51.984;20.956;2022-12-18T14:54:54;-2.86;80.94
65598;SHT31;52267;51.984;20.956;2022-12-18T14:57:25;-2.86;80.80
65598;SHT31;52267;51.984;20.956;2022-12-18T15:00:11;-2.89;80.90
65598;SHT31;52267;51.984;20.956;2022-12-18T15:02:46;-2.88;80.96
65598;SHT31;52267;51.984;20.956;2022-12-18T15:05:27;-2.91;81.17
65598;SHT31;52267;51.984;20.956;2022-12-18T15:08:00;-2.86;81.13
65598;SHT31;52267;51.984;20.956;2022-12-18T15:10:30;-2.93;81.24
65598;SHT31;52267;51.984;20.956;2022-12-18T15:18:12;-3.00;81.47
65598;SHT31;52267;51.984;20.956;2022-12-18T15:26:20;-2.84;81.50
65598;SHT31;52267;51.984;20.956;2022-12-18T15:31:30;-2.83;81.45
65598;SHT31;52267;51.984;20.956;2022-12-18T15:34:14;-2.91;81.40
65598;SHT31;52267;51.984;20.956;2022-12-18T15:36:50;-3.03;81.54
65598;SHT31;52267;51.984;20.956;2022-12-18T15:39:18;-3.00;81.60
65598;SHT31;52267;51.984;20.956;2022-12-18T15:41:47;-3.03;81.58
65598;SHT31;52267;51.984;20.956;2022-12-18T15:44:32;-3.05;81.52
65598;SHT31;52267;51.984;20.956;2022-12-18T15:47:01;-3.08;81.65
65598;SHT31;52267;51.984;20.956;2022-12-18T15:49:29;-3.10;81.70
65598;SHT31;52267;51.984;20.956;2022-12-18T15:51:57;-3.15;81.81
65598;SHT31;52267;51.984;20.956;2022-12-18T15:54:27;-3.29;82.10
65598;SHT31;52267;51.984;20.956;2022-12-18T15:57:15;-3.39;82.18
65598;SHT31;52267;51.984;20.956;2022-12-18T15:59:53;-3.38;82.13
65598;SHT31;52267;51.984;20.956;2022-12-18T16:03:14;-3.34;81.90
65598;SHT31;52267;51.984;20.956;2022-12-18T16:05:44;-3.37;81.96
65598;SHT31;52267;51.984;20.956;2022-12-18T16:08:12;-3.38;82.03
65598;SHT31;52267;51.984;20.956;2022-12-18T16:10:40;-3.41;81.93
65598;SHT31;52267;51.984;20.956;2022-12-18T16:13:12;-3.48;81.94
65598;SHT31;52267;51.984;20.956;2022-12-18T16:15:46;-3.55;82.08
65598;SHT31;52267;51.984;20.956;2022-12-18T16:18:14;-3.61;82.20
65598;SHT31;52267;51.984;20.956;2022-12-18T16:20:47;-3.67;82.42
65598;SHT31;52267;51.984;20.956;2022-12-18T16:23:16;-3.75;82.49
65598;SHT31;52267;51.984;20.956;2022-12-18T16:25:47;-3.81;82.57
65598;SHT31;52267;51.984;20.956;2022-12-18T16:28:14;-3.86;82.61
65598;SHT31;52267;51.984;20.956;2022-12-18T16:30:43;-3.90;82.72
65598;SHT31;52267;51.984;20.956;2022-12-18T16:33:12;-3.91;82.63
65598;SHT31;52267;51.984;20.956;2022-12-18T16:35:40;-3.89;82.69
65598;SHT31;52267;51.984;20.956;2022-12-18T16:38:08;-3.93;82.83
65598;SHT31;52267;51.984;20.956;2022-12-18T16:40:36;-4.00;82.99
65598;SHT31;52267;51.984;20.956;2022-12-18T16:43:25;-4.01;83.01
65598;SHT31;52267;51.984;20.956;2022-12-18T16:45:53;-3.96;83.01
65598;SHT31;52267;51.984;20.956;2022-12-18T16:48:24;-3.98;83.08
65598;SHT31;52267;51.984;20.956;2022-12-18T16:50:59;-4.03;83.07
65598;SHT31;52267;51.984;20.956;2022-12-18T16:53:31;-4.07;83.29
65598;SHT31;52267;51.984;20.956;2022-12-18T16:56:00;-4.05;83.24
65598;SHT31;52267;51.984;20.956;2022-12-18T16:58:28;-4.03;83.04
65598;SHT31;52267;51.984;20.956;2022-12-18T17:00:58;-4.09;83.57
65598;SHT31;52267;51.984;20.956;2022-12-18T17:03:28;-4.11;83.80
65598;SHT31;52267;51.984;20.956;2022-12-18T17:06:03;-4.11;83.90
65598;SHT31;52267;51.984;20.956;2022-12-18T17:08:32;-4.14;83.69
65598;SHT31;52267;51.984;20.956;2022-12-18T17:11:05;-4.18;83.78
65598;SHT31;52267;51.984;20.956;2022-12-18T17:13:34;-4.20;84.09
65598;SHT31;52267;51.984;20.956;2022-12-18T17:16:05;-4.16;83.98
65598;SHT31;52267;51.984;20.956;2022-12-18T17:18:34;-4.11;83.64
65598;SHT31;52267;51.984;20.956;2022-12-18T17:21:03;-4.10;83.63
65598;SHT31;52267;51.984;20.956;2022-12-18T17:23:36;-4.16;83.87
65598;SHT31;52267;51.984;20.956;2022-12-18T17:26:06;-4.22;84.02
65598;SHT31;52267;51.984;20.956;2022-12-18T17:28:38;-4.23;83.97
65598;SHT31;52267;51.984;20.956;2022-12-18T17:31:15;-4.28;84.04
65598;SHT31;52267;51.984;20.956;2022-12-18T17:33:46;-4.32;84.21
65598;SHT31;52267;51.984;20.956;2022-12-18T17:36:16;-4.29;84.09
65598;SHT31;52267;51.984;20.956;2022-12-18T17:38:49;-4.26;83.90
65598;SHT31;52267;51.984;20.956;2022-12-18T17:41:27;-4.28;83.99
65598;SHT31;52267;51.984;20.956;2022-12-18T17:44:02;-4.29;83.86
65598;SHT31;52267;51.984;20.956;2022-12-18T17:46:32;-4.34;83.86
65598;SHT31;52267;51.984;20.956;2022-12-18T17:49:02;-4.31;83.82